Time;durP1;ratioP1;P1;durP2;ratioP2;P2;SDS_P1;SDS_P2;PMS_P1;PMS_P2;Temp;Humidity;BMP_temperature;BMP_pressure;BME280_temperature;BME280_humidity;BME280_pressure;Samples;Min_cycle;Max_cycle;Signal;HPM_P1;HPM_P2
2022/11/25 00:01:34;;;;;;;;;9.00;7.33;;;;;-147.17;100.00;-15917.19;5029228;28;51403;-45
2022/11/25 00:04:00;;;;;;;;;7.00;6.00;;;;;-147.17;100.00;-15917.19;5050153;28;51075;-46
2022/11/25 00:06:28;;;;;;;;;4.67;3.67;;;;;-147.17;100.00;-15917.19;5048625;28;51366;-46
2022/11/25 00:09:02;;;;;;;;;3.33;3.00;;;;;-147.17;100.00;-15917.19;5049818;28;51321;-46
2022/11/25 00:11:28;;;;;;;;;4.67;4.33;;;;;-147.17;100.00;-15917.19;5050720;28;51089;-47
2022/11/25 00:13:55;;;;;;;;;5.33;4.67;;;;;-147.17;100.00;-15917.19;5035853;28;51245;-46
2022/11/25 00:16:23;;;;;;;;;5.33;4.00;;;;;-147.17;100.00;-15917.19;5053721;28;50988;-50
2022/11/25 00:18:50;;;;;;;;;5.67;4.33;;;;;-147.17;100.00;-15917.19;5048182;28;52076;-45
2022/11/25 00:21:18;;;;;;;;;4.00;3.00;;;;;-147.17;100.00;-15917.19;5049432;28;51171;-46
2022/11/25 00:23:48;;;;;;;;;4.00;2.67;;;;;-147.17;100.00;-15917.19;5050788;28;51212;-45
2022/11/25 00:26:15;;;;;;;;;3.67;3.00;;;;;-147.17;100.00;-15917.19;5053073;28;51125;-46
2022/11/25 00:28:45;;;;;;;;;1.67;1.67;;;;;-147.17;100.00;-15917.19;5050481;28;51184;-46
2022/11/25 00:31:15;;;;;;;;;4.67;4.67;;;;;-147.17;100.00;-15917.19;5052334;28;50909;-46
2022/11/25 00:33:40;;;;;;;;;3.00;3.00;;;;;-147.17;100.00;-15917.19;5052801;28;50993;-46
2022/11/25 00:36:15;;;;;;;;;3.33;2.67;;;;;-147.17;100.00;-15917.19;5053554;28;51744;-47
2022/11/25 00:38:40;;;;;;;;;3.67;3.67;;;;;-147.17;100.00;-15917.19;5044939;28;51110;-46
2022/11/25 00:46:33;;;;;;;;;4.33;4.00;;;;;-147.17;100.00;-15917.19;5054205;28;51074;-48
2022/11/25 00:48:59;;;;;;;;;4.67;4.67;;;;;-147.17;100.00;-15917.19;5051962;28;51274;-46
2022/11/25 00:51:24;;;;;;;;;4.67;4.00;;;;;-147.17;100.00;-15917.19;5052986;28;50970;-46
2022/11/25 00:53:49;;;;;;;;;4.00;4.00;;;;;-147.17;100.00;-15917.19;5034456;28;51095;-47
2022/11/25 00:56:15;;;;;;;;;3.67;3.67;;;;;-147.17;100.00;-15917.19;5055205;28;51202;-47
2022/11/25 00:58:42;;;;;;;;;5.00;4.00;;;;;-147.17;100.00;-15917.19;5052726;28;51186;-46
2022/11/25 01:01:08;;;;;;;;;4.00;3.00;;;;;-147.17;100.00;-15917.19;5053892;28;51059;-46
2022/11/25 01:03:36;;;;;;;;;2.00;2.00;;;;;-147.17;100.00;-15917.19;5053946;28;51156;-46
2022/11/25 01:06:09;;;;;;;;;5.00;4.00;;;;;-147.17;100.00;-15917.19;5054136;28;51024;-45
2022/11/25 01:08:36;;;;;;;;;4.00;3.00;;;;;-147.17;100.00;-15917.19;5033474;28;51176;-48
2022/11/25 01:11:05;;;;;;;;;6.00;4.00;;;;;-147.17;100.00;-15917.19;5052194;28;51054;-47
2022/11/25 01:13:30;;;;;;;;;5.00;4.00;;;;;-147.17;100.00;-15917.19;5052403;28;51105;-48
2022/11/25 01:15:56;;;;;;;;;5.33;4.67;;;;;-147.17;100.00;-15917.19;5050605;28;51286;-48
2022/11/25 01:18:21;;;;;;;;;4.33;4.33;;;;;-147.17;100.00;-15917.19;5033867;28;51133;-45
2022/11/25 01:20:46;;;;;;;;;5.00;3.00;;;;;-147.17;100.00;-15917.19;5051717;28;51068;-46
2022/11/25 01:23:12;;;;;;;;;5.00;4.00;;;;;-147.17;100.00;-15917.19;5051889;28;51056;-45
2022/11/25 01:25:40;;;;;;;;;7.00;5.67;;;;;-147.17;100.00;-15917.19;5051628;28;57502;-47
2022/11/25 01:28:05;;;;;;;;;4.33;3.67;;;;;-147.17;100.00;-15917.19;5051836;28;51113;-46
2022/11/25 01:30:31;;;;;;;;;5.00;4.00;;;;;-147.17;100.00;-15917.19;5048588;28;51249;-46
2022/11/25 01:32:56;;;;;;;;;5.00;4.67;;;;;-147.17;100.00;-15917.19;5051961;28;51373;-47
2022/11/25 01:35:22;;;;;;;;;4.00;3.67;;;;;-147.17;100.00;-15917.19;5051666;28;52157;-45
2022/11/25 01:37:47;;;;;;;;;6.00;5.00;;;;;-147.17;100.00;-15917.19;5033992;28;51066;-48
2022/11/25 01:40:13;;;;;;;;;3.33;3.00;;;;;-147.17;100.00;-15917.19;5052980;28;51052;-46
2022/11/25 01:42:43;;;;;;;;;3.00;2.33;;;;;-147.17;100.00;-15917.19;5043748;28;51153;-46
2022/11/25 01:45:36;;;;;;;;;3.67;3.00;;;;;-147.17;100.00;-15917.19;5051570;28;51013;-48
2022/11/25 01:48:12;;;;;;;;;1.67;1.00;;;;;-147.17;100.00;-15917.19;5049529;28;51108;-46
2022/11/25 01:50:38;;;;;;;;;6.00;4.33;;;;;-147.17;100.00;-15917.19;5047164;28;51160;-46
2022/11/25 01:53:09;;;;;;;;;3.33;3.00;;;;;-147.17;100.00;-15917.19;5052517;28;51358;-47
2022/11/25 01:55:38;;;;;;;;;3.67;3.00;;;;;-147.17;100.00;-15917.19;5051181;28;51125;-46
2022/11/25 01:58:16;;;;;;;;;3.67;3.67;;;;;-147.17;100.00;-15917.19;5033595;28;51106;-49
2022/11/25 02:00:49;;;;;;;;;3.33;3.00;;;;;-147.17;100.00;-15917.19;5049918;28;51092;-47
2022/11/25 02:03:45;;;;;;;;;3.67;3.00;;;;;-147.17;100.00;-15917.19;5052446;28;50997;-45
2022/11/25 02:06:21;;;;;;;;;4.67;3.00;;;;;-147.17;100.00;-15917.19;5036414;28;51880;-46
2022/11/25 02:08:51;;;;;;;;;4.67;4.00;;;;;-147.17;100.00;-15917.19;5051468;28;51085;-47
2022/11/25 02:11:19;;;;;;;;;2.33;1.67;;;;;-147.17;100.00;-15917.19;5050348;28;51198;-46
2022/11/25 02:13:47;;;;;;;;;3.00;2.67;;;;;-147.17;100.00;-15917.19;5052530;28;51360;-46
2022/11/25 02:16:13;;;;;;;;;4.33;3.00;;;;;-147.17;100.00;-15917.19;5048977;28;51887;-49
2022/11/25 02:18:39;;;;;;;;;3.67;2.00;;;;;-147.17;100.00;-15917.19;5051043;28;53212;-46
2022/11/25 02:21:05;;;;;;;;;3.33;2.67;;;;;-147.17;100.00;-15917.19;5050394;28;51076;-46
2022/11/25 02:23:49;;;;;;;;;2.33;2.00;;;;;-147.17;100.00;-15917.19;5051752;28;51157;-48
2022/11/25 02:26:14;;;;;;;;;2.00;2.00;;;;;-147.17;100.00;-15917.19;5050803;28;51462;-46
2022/11/25 02:28:40;;;;;;;;;2.67;2.67;;;;;-147.17;100.00;-15917.19;5051511;28;50926;-46
2022/11/25 02:31:06;;;;;;;;;3.67;3.00;;;;;-147.17;100.00;-15917.19;5050861;28;51140;-45
2022/11/25 02:33:32;;;;;;;;;3.00;2.00;;;;;-147.17;100.00;-15917.19;5051239;28;51222;-46
2022/11/25 02:36:03;;;;;;;;;4.67;2.67;;;;;-147.17;100.00;-15917.19;5030017;28;52071;-46
2022/11/25 02:38:31;;;;;;;;;3.33;2.00;;;;;-147.17;100.00;-15917.19;5050791;28;51202;-49
2022/11/25 02:41:15;;;;;;;;;5.67;3.00;;;;;-147.17;100.00;-15917.19;5050778;28;51317;-46
2022/11/25 02:43:40;;;;;;;;;3.00;2.00;;;;;-147.17;100.00;-15917.19;5049986;28;51472;-49
2022/11/25 02:46:14;;;;;;;;;2.00;2.00;;;;;-147.17;100.00;-15917.19;5050351;28;52239;-46
2022/11/25 02:48:41;;;;;;;;;2.00;2.00;;;;;-147.17;100.00;-15917.19;5052326;28;51046;-46
2022/11/25 02:51:08;;;;;;;;;3.00;2.00;;;;;-147.17;100.00;-15917.19;5052051;28;51141;-50
2022/11/25 02:53:34;;;;;;;;;4.67;3.33;;;;;-147.17;100.00;-15917.19;5047201;28;50984;-50
2022/11/25 02:55:59;;;;;;;;;2.00;2.00;;;;;-147.17;100.00;-15917.19;5046777;28;51972;-46
2022/11/25 02:58:25;;;;;;;;;3.67;3.00;;;;;-147.17;100.00;-15917.19;5051973;28;50926;-47
2022/11/25 03:00:50;;;;;;;;;4.00;3.00;;;;;-147.17;100.00;-15917.19;5051081;28;51091;-47
2022/11/25 03:03:16;;;;;;;;;3.00;2.33;;;;;-147.17;100.00;-15917.19;5052169;28;51318;-46
2022/11/25 03:05:41;;;;;;;;;2.67;2.67;;;;;-147.17;100.00;-15917.19;5049401;28;51971;-46
2022/11/25 03:08:07;;;;;;;;;5.33;2.33;;;;;-147.17;100.00;-15917.19;5050030;28;51206;-46
2022/11/25 03:10:33;;;;;;;;;3.33;3.33;;;;;-147.17;100.00;-15917.19;5053144;28;51102;-47
2022/11/25 03:12:58;;;;;;;;;5.00;3.00;;;;;-147.17;100.00;-15917.19;5030233;28;51160;-45
2022/11/25 03:15:24;;;;;;;;;3.33;2.00;;;;;-147.17;100.00;-15917.19;5049380;28;51811;-46
2022/11/25 03:17:51;;;;;;;;;2.00;1.00;;;;;-147.17;100.00;-15917.19;5055802;28;51032;-46
2022/11/25 03:20:17;;;;;;;;;2.67;2.00;;;;;-147.17;100.00;-15917.19;5057142;28;50966;-46
2022/11/25 03:22:43;;;;;;;;;3.00;3.00;;;;;-147.17;100.00;-15917.19;5055702;28;51006;-45
2022/11/25 03:25:10;;;;;;;;;1.33;1.33;;;;;-147.17;100.00;-15917.19;5055878;28;51743;-48
2022/11/25 03:27:36;;;;;;;;;2.33;2.33;;;;;-147.17;100.00;-15917.19;5036520;28;51189;-45
2022/11/25 03:30:03;;;;;;;;;3.00;2.00;;;;;-147.17;100.00;-15917.19;5055005;28;51490;-46
2022/11/25 03:32:29;;;;;;;;;4.00;3.33;;;;;-147.17;100.00;-15917.19;5055531;28;51103;-47
2022/11/25 03:34:54;;;;;;;;;3.67;2.00;;;;;-147.17;100.00;-15917.19;5033281;28;52870;-47
2022/11/25 03:37:19;;;;;;;;;3.00;3.00;;;;;-147.17;100.00;-15917.19;5053528;28;51230;-46
2022/11/25 03:39:45;;;;;;;;;2.00;1.33;;;;;-147.17;100.00;-15917.19;5054163;28;51030;-45
2022/11/25 03:42:10;;;;;;;;;4.00;3.33;;;;;-147.17;100.00;-15917.19;5021617;28;51192;-45
2022/11/25 03:44:35;;;;;;;;;1.00;0.00;;;;;-147.17;100.00;-15917.19;5046563;28;51176;-48
2022/11/25 03:47:01;;;;;;;;;3.00;3.00;;;;;-147.17;100.00;-15917.19;5052926;28;51042;-47
2022/11/25 03:49:26;;;;;;;;;3.00;2.33;;;;;-147.17;100.00;-15917.19;5054759;28;51059;-48
2022/11/25 03:51:52;;;;;;;;;3.00;3.00;;;;;-147.17;100.00;-15917.19;5045595;28;50991;-46
2022/11/25 03:54:17;;;;;;;;;2.67;2.33;;;;;-147.17;100.00;-15917.19;5049137;28;51132;-46
2022/11/25 03:56:42;;;;;;;;;3.00;2.33;;;;;-147.17;100.00;-15917.19;5053497;28;51147;-48
2022/11/25 03:59:08;;;;;;;;;3.33;2.00;;;;;-147.17;100.00;-15917.19;5047288;28;51260;-47
2022/11/25 04:01:33;;;;;;;;;3.33;2.33;;;;;-147.17;100.00;-15917.19;5051579;28;51045;-46
2022/11/25 04:04:00;;;;;;;;;5.00;4.00;;;;;-147.17;100.00;-15917.19;5052955;28;52870;-47
2022/11/25 04:06:25;;;;;;;;;3.00;2.00;;;;;-147.17;100.00;-15917.19;5052828;28;51128;-47
2022/11/25 04:08:50;;;;;;;;;3.33;3.00;;;;;-147.17;100.00;-15917.19;5054485;28;51030;-46
2022/11/25 04:11:15;;;;;;;;;4.00;3.00;;;;;-147.17;100.00;-15917.19;5054549;28;50968;-47
2022/11/25 04:13:41;;;;;;;;;4.00;3.67;;;;;-147.17;100.00;-15917.19;5052815;28;51698;-47
2022/11/25 04:16:18;;;;;;;;;4.33;2.00;;;;;-147.17;100.00;-15917.19;5052166;28;51099;-47
2022/11/25 04:18:44;;;;;;;;;3.67;2.00;;;;;-147.17;100.00;-15917.19;5053814;28;50989;-49
2022/11/25 04:21:09;;;;;;;;;5.00;5.00;;;;;-147.17;100.00;-15917.19;5053980;28;51066;-47
2022/11/25 04:23:34;;;;;;;;;4.00;2.00;;;;;-147.17;100.00;-15917.19;5052969;28;52200;-47
2022/11/25 04:26:00;;;;;;;;;5.00;4.00;;;;;-147.17;100.00;-15917.19;5052262;28;58039;-49
2022/11/25 04:28:25;;;;;;;;;2.33;2.00;;;;;-147.17;100.00;-15917.19;5052923;28;51095;-47
2022/11/25 04:30:50;;;;;;;;;3.00;3.00;;;;;-147.17;100.00;-15917.19;5052466;28;51101;-48
2022/11/25 04:33:15;;;;;;;;;5.00;4.00;;;;;-147.17;100.00;-15917.19;5045899;28;51159;-45
2022/11/25 04:35:41;;;;;;;;;2.00;2.00;;;;;-147.17;100.00;-15917.19;5049108;28;60522;-46
2022/11/25 04:38:06;;;;;;;;;4.67;4.33;;;;;-147.17;100.00;-15917.19;5054151;28;51260;-46
2022/11/25 04:40:31;;;;;;;;;3.67;3.67;;;;;-147.17;100.00;-15917.19;5029480;28;51093;-49
2022/11/25 04:42:57;;;;;;;;;3.00;2.00;;;;;-147.17;100.00;-15917.19;5034112;28;53498;-46
2022/11/25 04:45:22;;;;;;;;;3.00;2.00;;;;;-147.17;100.00;-15917.19;5052978;28;50999;-48
2022/11/25 04:47:47;;;;;;;;;5.00;3.67;;;;;-147.17;100.00;-15917.19;5052181;28;51214;-47
2022/11/25 04:50:17;;;;;;;;;4.67;3.67;;;;;-147.17;100.00;-15917.19;5052342;28;51381;-47
2022/11/25 04:52:43;;;;;;;;;8.00;5.00;;;;;-147.17;100.00;-15917.19;5052038;28;52066;-48
2022/11/25 04:55:09;;;;;;;;;4.33;3.00;;;;;-147.17;100.00;-15917.19;5051827;28;51339;-48
2022/11/25 04:57:34;;;;;;;;;2.33;2.00;;;;;-147.17;100.00;-15917.19;5052694;28;51225;-48
2022/11/25 04:59:59;;;;;;;;;6.33;4.00;;;;;-147.17;100.00;-15917.19;5052440;28;51429;-46
2022/11/25 05:02:26;;;;;;;;;7.00;2.00;;;;;-147.17;100.00;-15917.19;5050760;28;51943;-51
2022/11/25 05:04:54;;;;;;;;;3.00;3.00;;;;;-147.17;100.00;-15917.19;5047160;28;51145;-47
2022/11/25 05:07:21;;;;;;;;;4.00;3.00;;;;;-147.17;100.00;-15917.19;5033846;28;51214;-49
2022/11/25 05:09:47;;;;;;;;;3.33;3.00;;;;;-147.17;100.00;-15917.19;5053377;28;51294;-48
2022/11/25 05:12:19;;;;;;;;;7.75;5.00;;;;;-147.17;100.00;-15917.19;5034861;28;52911;-45
2022/11/25 05:14:44;;;;;;;;;4.33;3.00;;;;;-147.17;100.00;-15917.19;5049859;28;51053;-46
2022/11/25 05:17:13;;;;;;;;;4.67;3.00;;;;;-147.17;100.00;-15917.19;5051445;28;51180;-47
2022/11/25 05:19:39;;;;;;;;;4.67;3.67;;;;;-147.17;100.00;-15917.19;5052689;28;51111;-46
2022/11/25 05:22:04;;;;;;;;;4.00;3.00;;;;;-147.17;100.00;-15917.19;5051735;28;51851;-50
2022/11/25 05:24:29;;;;;;;;;5.00;4.00;;;;;-147.17;100.00;-15917.19;5051496;28;51147;-47
2022/11/25 05:26:55;;;;;;;;;7.00;4.00;;;;;-147.17;100.00;-15917.19;5033859;28;51351;-50
2022/11/25 05:29:21;;;;;;;;;7.00;5.00;;;;;-147.17;100.00;-15917.19;5053412;28;51355;-46
2022/11/25 05:31:46;;;;;;;;;2.67;2.67;;;;;-147.17;100.00;-15917.19;5043859;28;51983;-46
2022/11/25 05:34:11;;;;;;;;;2.00;2.00;;;;;-147.17;100.00;-15917.19;5048291;28;51180;-46
2022/11/25 05:36:36;;;;;;;;;4.25;4.25;;;;;-147.17;100.00;-15917.19;5050162;28;52501;-48
2022/11/25 05:39:02;;;;;;;;;4.00;3.00;;;;;-147.17;100.00;-15917.19;5053055;28;50959;-46
2022/11/25 05:41:28;;;;;;;;;3.67;3.00;;;;;-147.17;100.00;-15917.19;5053141;28;50956;-47
2022/11/25 05:43:54;;;;;;;;;4.33;3.00;;;;;-147.17;100.00;-15917.19;5051912;28;51153;-47
2022/11/25 05:46:20;;;;;;;;;4.25;3.25;;;;;-147.17;100.00;-15917.19;5051807;28;51004;-45
2022/11/25 05:48:45;;;;;;;;;11.50;10.25;;;;;-147.17;100.00;-15917.19;5052683;28;50930;-46
2022/11/25 05:51:11;;;;;;;;;4.33;4.00;;;;;-147.17;100.00;-15917.19;5052283;28;51077;-48
2022/11/25 05:53:36;;;;;;;;;3.67;3.00;;;;;-147.17;100.00;-15917.19;5030554;28;51054;-47
2022/11/25 05:56:05;;;;;;;;;4.00;4.00;;;;;-147.17;100.00;-15917.19;5051561;28;51319;-48
2022/11/25 05:58:31;;;;;;;;;4.00;3.00;;;;;-147.17;100.00;-15917.19;5052671;28;50902;-46
2022/11/25 06:00:57;;;;;;;;;4.00;4.00;;;;;-147.17;100.00;-15917.19;5031799;28;53338;-46
2022/11/25 06:03:29;;;;;;;;;4.00;3.00;;;;;-147.17;100.00;-15917.19;5032487;28;51204;-47
2022/11/25 06:05:56;;;;;;;;;5.00;3.67;;;;;-147.17;100.00;-15917.19;5051590;28;51207;-45
2022/11/25 06:08:21;;;;;;;;;5.67;4.00;;;;;-147.17;100.00;-15917.19;5033804;28;51070;-46
2022/11/25 06:10:46;;;;;;;;;2.33;2.33;;;;;-147.17;100.00;-15917.19;5028820;28;51812;-46
2022/11/25 06:13:12;;;;;;;;;5.00;4.00;;;;;-147.17;100.00;-15917.19;5048581;28;51039;-46
2022/11/25 06:15:42;;;;;;;;;5.50;4.75;;;;;-147.17;100.00;-15917.19;5051638;28;50953;-48
2022/11/25 06:18:09;;;;;;;;;4.33;3.00;;;;;-147.17;100.00;-15917.19;5049417;28;51418;-46
2022/11/25 06:20:34;;;;;;;;;5.00;4.25;;;;;-147.17;100.00;-15917.19;5052263;28;51809;-47
2022/11/25 06:23:00;;;;;;;;;5.00;4.00;;;;;-147.17;100.00;-15917.19;5041645;28;51011;-47
2022/11/25 06:25:25;;;;;;;;;5.25;4.00;;;;;-147.17;100.00;-15917.19;5049442;28;51043;-45
2022/11/25 06:27:51;;;;;;;;;6.00;3.33;;;;;-147.17;100.00;-15917.19;5045007;28;51353;-48
2022/11/25 06:30:17;;;;;;;;;5.00;3.00;;;;;-147.17;100.00;-15917.19;5047613;28;52055;-49
2022/11/25 06:32:42;;;;;;;;;4.33;4.00;;;;;-147.17;100.00;-15917.19;5050993;28;51058;-47
2022/11/25 06:35:08;;;;;;;;;4.67;4.67;;;;;-147.17;100.00;-15917.19;5049271;28;50920;-46
2022/11/25 06:37:34;;;;;;;;;7.25;7.25;;;;;-147.17;100.00;-15917.19;5046350;28;51137;-48
2022/11/25 06:39:59;;;;;;;;;6.33;4.33;;;;;-147.17;100.00;-15917.19;5030053;28;53081;-48
2022/11/25 06:42:24;;;;;;;;;3.50;2.50;;;;;-147.17;100.00;-15917.19;5049419;28;51069;-45
2022/11/25 06:44:50;;;;;;;;;5.00;4.00;;;;;-147.17;100.00;-15917.19;5049289;28;51104;-47
2022/11/25 06:47:15;;;;;;;;;4.50;4.50;;;;;-147.17;100.00;-15917.19;5050643;28;50932;-46
2022/11/25 06:49:41;;;;;;;;;4.25;3.50;;;;;-147.17;100.00;-15917.19;5051609;28;52072;-47
2022/11/25 06:52:06;;;;;;;;;8.00;4.00;;;;;-147.17;100.00;-15917.19;5034137;28;51091;-49
2022/11/25 06:54:32;;;;;;;;;4.67;4.67;;;;;-147.17;100.00;-15917.19;5055201;28;51199;-46
2022/11/25 06:56:57;;;;;;;;;7.00;4.25;;;;;-147.17;100.00;-15917.19;5035076;28;51286;-49
2022/11/25 06:59:23;;;;;;;;;4.33;4.33;;;;;-147.17;100.00;-15917.19;5053937;28;52400;-46
2022/11/25 07:01:48;;;;;;;;;4.00;3.00;;;;;-147.17;100.00;-15917.19;5052688;28;51085;-46
2022/11/25 07:04:13;;;;;;;;;7.50;5.25;;;;;-147.17;100.00;-15917.19;5055188;28;51103;-47
2022/11/25 07:06:39;;;;;;;;;8.75;7.25;;;;;-147.17;100.00;-15917.19;5054397;28;51060;-44
2022/11/25 07:09:04;;;;;;;;;7.67;6.33;;;;;-147.17;100.00;-15917.19;5035968;28;51744;-47
2022/11/25 07:11:35;;;;;;;;;3.33;3.00;;;;;-147.17;100.00;-15917.19;5054104;28;51061;-46
2022/11/25 07:14:04;;;;;;;;;4.25;3.50;;;;;-147.17;100.00;-15917.19;5038742;28;51333;-48
2022/11/25 07:16:30;;;;;;;;;4.67;3.67;;;;;-147.17;100.00;-15917.19;5032739;28;51686;-48
2022/11/25 07:18:58;;;;;;;;;3.67;3.67;;;;;-147.17;100.00;-15917.19;5054582;28;51328;-48
2022/11/25 07:21:24;;;;;;;;;5.25;4.00;;;;;-147.17;100.00;-15917.19;5052436;28;51107;-47
2022/11/25 07:23:51;;;;;;;;;6.75;5.75;;;;;-147.17;100.00;-15917.19;5040660;28;51029;-47
2022/11/25 07:26:20;;;;;;;;;10.50;10.25;;;;;-147.17;100.00;-15917.19;5045043;28;51102;-46
2022/11/25 07:28:46;;;;;;;;;10.25;8.75;;;;;-147.17;100.00;-15917.19;5030203;28;52791;-54
2022/11/25 07:31:20;;;;;;;;;10.75;8.50;;;;;-147.17;100.00;-15917.19;5047696;28;51411;-45
2022/11/25 07:33:46;;;;;;;;;9.00;8.00;;;;;-147.17;100.00;-15917.19;5053020;28;51272;-48
2022/11/25 07:36:13;;;;;;;;;7.50;6.00;;;;;-147.17;100.00;-15917.19;5033219;28;51265;-49
2022/11/25 07:38:39;;;;;;;;;14.00;10.00;;;;;-147.17;100.00;-15917.19;5052336;28;52120;-46
2022/11/25 07:41:16;;;;;;;;;6.00;6.00;;;;;-147.17;100.00;-15917.19;5051926;28;51210;-48
2022/11/25 07:43:47;;;;;;;;;9.25;8.25;;;;;-147.17;100.00;-15917.19;5054849;28;50962;-49
2022/11/25 07:46:22;;;;;;;;;5.25;5.25;;;;;-147.17;100.00;-15917.19;5039425;28;51469;-46
2022/11/25 07:48:49;;;;;;;;;8.75;5.00;;;;;-147.17;100.00;-15917.19;5044899;28;52928;-46
2022/11/25 07:51:19;;;;;;;;;11.75;10.25;;;;;-147.17;100.00;-15917.19;5053349;28;51342;-46
2022/11/25 07:53:46;;;;;;;;;15.25;14.25;;;;;-147.17;100.00;-15917.19;5028873;28;51245;-49
2022/11/25 07:56:13;;;;;;;;;12.25;10.75;;;;;-147.17;100.00;-15917.19;5055259;28;51103;-47
2022/11/25 07:58:39;;;;;;;;;48.25;35.25;;;;;-147.17;100.00;-15917.19;5054690;28;52960;-47
2022/11/25 08:01:05;;;;;;;;;21.00;14.25;;;;;-147.17;100.00;-15917.19;5054382;28;51098;-48
2022/11/25 08:03:32;;;;;;;;;27.25;25.25;;;;;-147.17;100.00;-15917.19;5054371;28;50942;-47
2022/11/25 08:06:06;;;;;;;;;20.75;18.50;;;;;-147.17;100.00;-15917.19;5053476;28;51181;-46
2022/11/25 08:08:32;;;;;;;;;53.25;40.75;;;;;-147.17;100.00;-15917.19;5036299;28;52391;-48
2022/11/25 08:10:57;;;;;;;;;12.50;11.75;;;;;-147.17;100.00;-15917.19;5054435;28;51168;-47
2022/11/25 08:13:23;;;;;;;;;29.25;23.25;;;;;-147.17;100.00;-15917.19;5054625;28;51084;-50
2022/11/25 08:15:48;;;;;;;;;10.50;9.50;;;;;-147.17;100.00;-15917.19;5054616;28;51156;-47
2022/11/25 08:18:14;;;;;;;;;20.75;15.50;;;;;-147.17;100.00;-15917.19;5053764;28;51990;-47
2022/11/25 08:20:39;;;;;;;;;37.00;29.25;;;;;-147.17;100.00;-15917.19;5052830;28;50986;-49
2022/11/25 08:23:04;;;;;;;;;65.00;46.00;;;;;-147.17;100.00;-15917.19;5052806;28;50989;-45
2022/11/25 08:25:32;;;;;;;;;5.00;1.50;;;;;-147.17;100.00;-15917.19;5054400;28;51060;-45
2022/11/25 08:27:58;;;;;;;;;16.75;15.00;;;;;-147.17;100.00;-15917.19;5053289;28;52200;-46
2022/11/25 08:30:24;;;;;;;;;31.75;23.50;;;;;-147.17;100.00;-15917.19;5053235;28;51143;-45
2022/11/25 08:32:51;;;;;;;;;12.25;12.25;;;;;-147.17;100.00;-15917.19;5035083;28;51119;-47
2022/11/25 08:35:17;;;;;;;;;15.50;13.25;;;;;-147.17;100.00;-15917.19;5053801;28;50902;-47
2022/11/25 08:37:42;;;;;;;;;19.00;18.75;;;;;-147.17;100.00;-15917.19;5052506;28;51238;-47
2022/11/25 08:40:09;;;;;;;;;26.25;20.75;;;;;-147.17;100.00;-15917.19;5046277;28;51136;-46
2022/11/25 08:42:35;;;;;;;;;28.50;27.25;;;;;-147.17;100.00;-15917.19;5027853;28;51137;-47
2022/11/25 08:45:01;;;;;;;;;49.75;33.25;;;;;-147.17;100.00;-15917.19;5047905;28;51446;-48
2022/11/25 08:47:26;;;;;;;;;21.75;19.75;;;;;-147.17;100.00;-15917.19;5048333;28;51222;-47
2022/11/25 08:49:53;;;;;;;;;40.00;31.00;;;;;-147.17;100.00;-15917.19;5052865;28;51239;-47
2022/11/25 08:52:19;;;;;;;;;34.75;27.25;;;;;-147.17;100.00;-15917.19;5049447;28;51033;-48
2022/11/25 08:54:44;;;;;;;;;16.50;11.50;;;;;-147.17;100.00;-15917.19;5047153;28;51062;-46
2022/11/25 08:57:10;;;;;;;;;8.33;8.33;;;;;-147.17;100.00;-15917.19;5048386;28;51927;-45
2022/11/25 08:59:36;;;;;;;;;51.00;41.00;;;;;-147.17;100.00;-15917.19;5051585;28;51030;-47
2022/11/25 09:02:01;;;;;;;;;46.00;36.25;;;;;-147.17;100.00;-15917.19;5051005;28;51206;-46
2022/11/25 09:04:27;;;;;;;;;29.25;22.75;;;;;-147.17;100.00;-15917.19;5053045;28;51301;-47
2022/11/25 09:06:52;;;;;;;;;30.25;25.50;;;;;-147.17;100.00;-15917.19;5047424;28;56434;-46
2022/11/25 09:09:17;;;;;;;;;11.25;9.25;;;;;-147.17;100.00;-15917.19;5049879;28;51258;-47
2022/11/25 09:11:43;;;;;;;;;51.75;36.00;;;;;-147.17;100.00;-15917.19;5045998;28;51009;-46
2022/11/25 09:14:08;;;;;;;;;30.25;24.50;;;;;-147.17;100.00;-15917.19;5045079;28;51412;-46
2022/11/25 09:16:34;;;;;;;;;22.50;19.75;;;;;-147.17;100.00;-15917.19;5051878;28;51829;-46
2022/11/25 09:18:59;;;;;;;;;22.00;18.00;;;;;-147.17;100.00;-15917.19;5050203;28;51217;-48
2022/11/25 09:21:25;;;;;;;;;20.75;15.50;;;;;-147.17;100.00;-15917.19;5048214;28;51202;-46
2022/11/25 09:23:52;;;;;;;;;32.50;29.50;;;;;-147.17;100.00;-15917.19;5047071;28;51247;-46
2022/11/25 09:26:29;;;;;;;;;28.25;23.25;;;;;-147.17;100.00;-15917.19;5049872;28;51311;-46
2022/11/25 09:28:55;;;;;;;;;12.33;11.33;;;;;-147.17;100.00;-15917.19;5051185;28;51171;-48
2022/11/25 09:31:21;;;;;;;;;27.25;20.25;;;;;-147.17;100.00;-15917.19;5047085;28;50896;-48
2022/11/25 09:33:47;;;;;;;;;21.25;20.00;;;;;-147.17;100.00;-15917.19;5022794;28;51307;-48
2022/11/25 09:36:16;;;;;;;;;17.00;14.75;;;;;-147.17;100.00;-15917.19;5050381;28;51065;-47
2022/11/25 09:38:45;;;;;;;;;44.50;32.25;;;;;-147.17;100.00;-15917.19;5052215;28;51137;-46
2022/11/25 09:48:01;;;;;;;;;32.75;28.25;;;;;-147.17;100.00;-15917.19;5051055;28;51182;-50
2022/11/25 09:50:51;;;;;;;;;54.50;39.00;;;;;-147.17;100.00;-15917.19;5052124;28;51233;-48
2022/11/25 09:53:31;;;;;;;;;42.50;35.75;;;;;-147.17;100.00;-15917.19;5052462;28;51185;-49
2022/11/25 09:56:03;;;;;;;;;9.00;7.33;;;;;-147.17;100.00;-15917.19;5034431;28;50897;-47
2022/11/25 09:58:39;;;;;;;;;42.50;35.25;;;;;-147.17;100.00;-15917.19;5034069;28;52189;-46
2022/11/25 10:01:22;;;;;;;;;17.50;14.75;;;;;-147.17;100.00;-15917.19;5051909;28;51165;-49
2022/11/25 10:04:01;;;;;;;;;7.33;6.00;;;;;-147.17;100.00;-15917.19;5032433;28;51122;-45
2022/11/25 10:06:35;;;;;;;;;6.67;5.00;;;;;-147.17;100.00;-15917.19;5052490;28;51002;-48
2022/11/25 10:09:14;;;;;;;;;4.33;4.33;;;;;-147.17;100.00;-15917.19;5034074;28;52303;-45
2022/11/25 10:11:45;;;;;;;;;8.33;6.67;;;;;-147.17;100.00;-15917.19;5052156;28;51137;-46
2022/11/25 10:14:29;;;;;;;;;7.00;5.00;;;;;-147.17;100.00;-15917.19;5052221;28;51116;-47
2022/11/25 10:17:14;;;;;;;;;6.33;5.00;;;;;-147.17;100.00;-15917.19;5051824;28;51000;-45
2022/11/25 10:19:50;;;;;;;;;4.00;3.67;;;;;-147.17;100.00;-15917.19;5033336;28;51840;-48
2022/11/25 10:22:31;;;;;;;;;8.33;8.00;;;;;-147.17;100.00;-15917.19;5036448;28;51153;-47
2022/11/25 10:25:01;;;;;;;;;6.33;6.00;;;;;-147.17;100.00;-15917.19;5033830;28;51176;-46
2022/11/25 10:27:37;;;;;;;;;2.25;2.00;;;;;-147.17;100.00;-15917.19;5036497;28;51435;-46
2022/11/25 10:30:15;;;;;;;;;9.67;7.00;;;;;-147.17;100.00;-15917.19;5055529;28;52078;-47
2022/11/25 10:32:52;;;;;;;;;4.00;4.00;;;;;-147.17;100.00;-15917.19;5055755;28;50977;-47
2022/11/25 10:35:32;;;;;;;;;6.67;5.67;;;;;-147.17;100.00;-15917.19;5055921;28;51085;-46
2022/11/25 10:38:04;;;;;;;;;7.33;7.00;;;;;-147.17;100.00;-15917.19;5055067;28;51124;-46
2022/11/25 10:40:29;;;;;;;;;10.33;7.00;;;;;-147.17;100.00;-15917.19;5055529;28;52213;-45
2022/11/25 10:42:55;;;;;;;;;9.33;7.33;;;;;-147.17;100.00;-15917.19;5055387;28;50785;-48
2022/11/25 10:45:29;;;;;;;;;7.33;6.67;;;;;-147.17;100.00;-15917.19;5056510;28;51072;-47
2022/11/25 10:48:12;;;;;;;;;11.00;10.33;;;;;-147.17;100.00;-15917.19;5055803;28;51092;-45
2022/11/25 10:50:53;;;;;;;;;11.00;10.00;;;;;-147.17;100.00;-15917.19;5055325;28;51056;-48
2022/11/25 10:53:23;;;;;;;;;6.00;6.00;;;;;-147.17;100.00;-15917.19;5054290;28;51076;-46
2022/11/25 10:56:16;;;;;;;;;6.00;4.33;;;;;-147.17;100.00;-15917.19;5036786;28;51087;-47
2022/11/25 10:58:41;;;;;;;;;7.00;7.00;;;;;-147.17;100.00;-15917.19;5055281;28;51357;-48
2022/11/25 11:01:16;;;;;;;;;10.00;7.00;;;;;-147.17;100.00;-15917.19;5054325;28;51139;-47
2022/11/25 11:03:44;;;;;;;;;6.00;6.00;;;;;-147.17;100.00;-15917.19;5054792;28;51005;-47
2022/11/25 11:06:38;;;;;;;;;5.67;5.67;;;;;-147.17;100.00;-15917.19;5054596;28;51094;-47
2022/11/25 11:09:23;;;;;;;;;10.67;8.67;;;;;-147.17;100.00;-15917.19;5053331;28;50941;-46
2022/11/25 11:11:49;;;;;;;;;4.33;4.33;;;;;-147.17;100.00;-15917.19;5053177;28;52220;-47
2022/11/25 11:14:18;;;;;;;;;7.00;6.00;;;;;-147.17;100.00;-15917.19;5053238;28;51027;-47
2022/11/25 11:16:54;;;;;;;;;4.33;4.00;;;;;-147.17;100.00;-15917.19;5054099;28;51005;-48